sensor_id;sensor_type;location;lat;lon;timestamp;temperature;humidity
2913;DHT22;1466;48.778;9.166;2022-12-11T00:00:40;2.10;99.90
2913;DHT22;1466;48.778;9.166;2022-12-11T00:03:06;2.00;99.90
2913;DHT22;1466;48.778;9.166;2022-12-11T00:05:32;2.00;99.90
2913;DHT22;1466;48.778;9.166;2022-12-11T00:07:58;2.10;99.90
2913;DHT22;1466;48.778;9.166;2022-12-11T00:10:24;2.00;99.90
2913;DHT22;1466;48.778;9.166;2022-12-11T00:12:50;2.10;99.90
2913;DHT22;1466;48.778;9.166;2022-12-11T00:15:15;2.10;99.90
2913;DHT22;1466;48.778;9.166;2022-12-11T00:17:41;2.10;99.90
2913;DHT22;1466;48.778;9.166;2022-12-11T00:20:07;2.10;99.90
2913;DHT22;1466;48.778;9.166;2022-12-11T00:22:33;2.20;99.90
2913;DHT22;1466;48.778;9.166;2022-12-11T00:24:59;2.20;99.90
2913;DHT22;1466;48.778;9.166;2022-12-11T00:27:25;2.20;99.90
2913;DHT22;1466;48.778;9.166;2022-12-11T00:29:50;2.20;99.90
2913;DHT22;1466;48.778;9.166;2022-12-11T00:32:16;2.10;99.90
2913;DHT22;1466;48.778;9.166;2022-12-11T00:34:41;2.10;99.90
2913;DHT22;1466;48.778;9.166;2022-12-11T00:37:07;2.20;99.90
2913;DHT22;1466;48.778;9.166;2022-12-11T00:39:32;2.20;99.90
2913;DHT22;1466;48.778;9.166;2022-12-11T00:41:58;2.20;99.90
2913;DHT22;1466;48.778;9.166;2022-12-11T00:44:24;2.20;99.90
2913;DHT22;1466;48.778;9.166;2022-12-11T00:46:49;2.10;99.90
2913;DHT22;1466;48.778;9.166;2022-12-11T00:49:15;2.10;99.90
2913;DHT22;1466;48.778;9.166;2022-12-11T00:51:40;2.10;99.90
2913;DHT22;1466;48.778;9.166;2022-12-11T00:54:06;2.20;99.90
2913;DHT22;1466;48.778;9.166;2022-12-11T00:56:31;2.30;99.90
2913;DHT22;1466;48.778;9.166;2022-12-11T00:58:57;2.40;99.90
2913;DHT22;1466;48.778;9.166;2022-12-11T01:01:24;2.50;99.90
2913;DHT22;1466;48.778;9.166;2022-12-11T01:03:50;2.50;99.90
2913;DHT22;1466;48.778;9.166;2022-12-11T01:06:20;2.60;99.90
2913;DHT22;1466;48.778;9.166;2022-12-11T01:08:46;2.50;99.90
2913;DHT22;1466;48.778;9.166;2022-12-11T01:11:14;2.40;99.90
2913;DHT22;1466;48.778;9.166;2022-12-11T01:13:40;2.30;99.90
2913;DHT22;1466;48.778;9.166;2022-12-11T01:16:16;2.20;99.90
2913;DHT22;1466;48.778;9.166;2022-12-11T01:18:42;2.10;99.90
2913;DHT22;1466;48.778;9.166;2022-12-11T01:21:09;2.10;99.90
2913;DHT22;1466;48.778;9.166;2022-12-11T01:23:35;2.20;99.90
2913;DHT22;1466;48.778;9.166;2022-12-11T01:26:10;2.30;99.90
2913;DHT22;1466;48.778;9.166;2022-12-11T01:28:36;2.30;99.90
2913;DHT22;1466;48.778;9.166;2022-12-11T01:31:02;2.30;99.90
2913;DHT22;1466;48.778;9.166;2022-12-11T01:33:32;2.40;99.90
2913;DHT22;1466;48.778;9.166;2022-12-11T01:35:57;2.50;99.90
2913;DHT22;1466;48.778;9.166;2022-12-11T01:38:23;2.40;99.90
2913;DHT22;1466;48.778;9.166;2022-12-11T01:40:50;2.40;99.90
2913;DHT22;1466;48.778;9.166;2022-12-11T01:43:16;2.40;99.90
2913;DHT22;1466;48.778;9.166;2022-12-11T01:45:43;2.40;99.90
2913;DHT22;1466;48.778;9.166;2022-12-11T01:48:19;2.40;99.90
2913;DHT22;1466;48.778;9.166;2022-12-11T01:51:04;2.40;99.90
2913;DHT22;1466;48.778;9.166;2022-12-11T01:53:35;2.30;99.90
2913;DHT22;1466;48.778;9.166;2022-12-11T01:56:03;2.30;99.90
2913;DHT22;1466;48.778;9.166;2022-12-11T01:58:34;2.30;99.90
2913;DHT22;1466;48.778;9.166;2022-12-11T02:01:02;2.30;99.90
2913;DHT22;1466;48.778;9.166;2022-12-11T02:03:28;2.40;99.90
2913;DHT22;1466;48.778;9.166;2022-12-11T02:05:58;2.40;99.90
2913;DHT22;1466;48.778;9.166;2022-12-11T02:08:24;2.40;99.90
2913;DHT22;1466;48.778;9.166;2022-12-11T02:11:14;2.40;99.90
2913;DHT22;1466;48.778;9.166;2022-12-11T02:16:55;2.40;99.90
2913;DHT22;1466;48.778;9.166;2022-12-11T02:25:19;2.30;99.90
2913;DHT22;1466;48.778;9.166;2022-12-11T02:28:22;2.30;99.90
2913;DHT22;1466;48.778;9.166;2022-12-11T02:30:54;2.20;99.90
2913;DHT22;1466;48.778;9.166;2022-12-11T02:33:46;2.30;99.90
2913;DHT22;1466;48.778;9.166;2022-12-11T02:36:16;2.30;99.90
2913;DHT22;1466;48.778;9.166;2022-12-11T02:38:47;2.30;99.90
2913;DHT22;1466;48.778;9.166;2022-12-11T02:41:16;2.40;99.90
2913;DHT22;1466;48.778;9.166;2022-12-11T02:43:43;2.40;99.90
2913;DHT22;1466;48.778;9.166;2022-12-11T02:46:09;2.40;99.90
2913;DHT22;1466;48.778;9.166;2022-12-11T02:48:38;2.40;99.90
2913;DHT22;1466;48.778;9.166;2022-12-11T02:51:05;2.50;99.90
2913;DHT22;1466;48.778;9.166;2022-12-11T02:53:35;2.50;99.90
2913;DHT22;1466;48.778;9.166;2022-12-11T02:56:20;2.50;99.90
2913;DHT22;1466;48.778;9.166;2022-12-11T02:58:57;2.40;99.90
2913;DHT22;1466;48.778;9.166;2022-12-11T03:01:24;2.10;99.90
2913;DHT22;1466;48.778;9.166;2022-12-11T03:03:51;2.00;99.90
2913;DHT22;1466;48.778;9.166;2022-12-11T03:06:19;1.90;99.90
2913;DHT22;1466;48.778;9.166;2022-12-11T03:08:46;1.90;99.90
2913;DHT22;1466;48.778;9.166;2022-12-11T03:11:12;1.60;99.90
2913;DHT22;1466;48.778;9.166;2022-12-11T03:13:39;1.50;99.90
2913;DHT22;1466;48.778;9.166;2022-12-11T03:16:28;1.70;99.90
2913;DHT22;1466;48.778;9.166;2022-12-11T03:19:14;1.80;99.90
2913;DHT22;1466;48.778;9.166;2022-12-11T03:21:52;1.90;99.90
2913;DHT22;1466;48.778;9.166;2022-12-11T03:24:19;1.80;99.90
2913;DHT22;1466;48.778;9.166;2022-12-11T03:26:55;1.80;99.90
2913;DHT22;1466;48.778;9.166;2022-12-11T03:29:45;1.70;99.90
2913;DHT22;1466;48.778;9.166;2022-12-11T03:32:14;1.80;99.90
2913;DHT22;1466;48.778;9.166;2022-12-11T03:34:51;1.70;99.90
2913;DHT22;1466;48.778;9.166;2022-12-11T03:37:20;1.70;99.90
2913;DHT22;1466;48.778;9.166;2022-12-11T03:39:51;1.70;99.90
2913;DHT22;1466;48.778;9.166;2022-12-11T03:42:19;1.80;99.90
2913;DHT22;1466;48.778;9.166;2022-12-11T03:44:48;1.90;99.90
2913;DHT22;1466;48.778;9.166;2022-12-11T03:47:18;2.00;99.90
2913;DHT22;1466;48.778;9.166;2022-12-11T03:49:45;2.10;99.90
2913;DHT22;1466;48.778;9.166;2022-12-11T03:52:13;2.10;99.90
2913;DHT22;1466;48.778;9.166;2022-12-11T03:54:42;2.10;99.90
2913;DHT22;1466;48.778;9.166;2022-12-11T03:57:14;2.10;99.90
2913;DHT22;1466;48.778;9.166;2022-12-11T03:59:40;2.10;99.90
2913;DHT22;1466;48.778;9.166;2022-12-11T04:02:06;2.20;99.90
2913;DHT22;1466;48.778;9.166;2022-12-11T04:04:39;2.10;99.90
2913;DHT22;1466;48.778;9.166;2022-12-11T04:07:06;2.10;99.90
2913;DHT22;1466;48.778;9.166;2022-12-11T04:09:31;2.10;99.90
2913;DHT22;1466;48.778;9.166;2022-12-11T04:11:57;2.20;99.90
2913;DHT22;1466;48.778;9.166;2022-12-11T04:14:23;2.30;99.90
2913;DHT22;1466;48.778;9.166;2022-12-11T04:17:07;2.30;99.90
2913;DHT22;1466;48.778;9.166;2022-12-11T04:19:33;2.40;99.90
2913;DHT22;1466;48.778;9.166;2022-12-11T04:22:17;2.40;99.90
2913;DHT22;1466;48.778;9.166;2022-12-11T04:25:04;2.40;99.90
2913;DHT22;1466;48.778;9.166;2022-12-11T04:27:30;2.30;99.90
2913;DHT22;1466;48.778;9.166;2022-12-11T04:30:16;2.40;99.90
2913;DHT22;1466;48.778;9.166;2022-12-11T04:32:42;2.40;99.90
2913;DHT22;1466;48.778;9.166;2022-12-11T04:35:09;2.40;99.90
2913;DHT22;1466;48.778;9.166;2022-12-11T04:37:36;2.40;99.90
2913;DHT22;1466;48.778;9.166;2022-12-11T04:40:03;2.40;99.90
2913;DHT22;1466;48.778;9.166;2022-12-11T04:42:29;2.40;99.90
2913;DHT22;1466;48.778;9.166;2022-12-11T04:44:54;2.50;99.90
2913;DHT22;1466;48.778;9.166;2022-12-11T04:47:20;2.40;99.90
2913;DHT22;1466;48.778;9.166;2022-12-11T04:49:46;2.40;99.90
2913;DHT22;1466;48.778;9.166;2022-12-11T04:52:11;2.40;99.90
2913;DHT22;1466;48.778;9.166;2022-12-11T04:54:37;2.30;99.90
2913;DHT22;1466;48.778;9.166;2022-12-11T04:57:03;2.30;99.90
2913;DHT22;1466;48.778;9.166;2022-12-11T04:59:28;2.30;99.90
2913;DHT22;1466;48.778;9.166;2022-12-11T05:01:54;2.30;99.90
2913;DHT22;1466;48.778;9.166;2022-12-11T05:04:20;2.30;99.90
2913;DHT22;1466;48.778;9.166;2022-12-11T05:06:48;2.30;99.90
2913;DHT22;1466;48.778;9.166;2022-12-11T05:09:14;2.30;99.90
2913;DHT22;1466;48.778;9.166;2022-12-11T05:11:39;2.20;99.90
2913;DHT22;1466;48.778;9.166;2022-12-11T05:14:05;2.20;99.90
2913;DHT22;1466;48.778;9.166;2022-12-11T05:16:31;2.10;99.90
2913;DHT22;1466;48.778;9.166;2022-12-11T05:18:56;2.20;99.90
2913;DHT22;1466;48.778;9.166;2022-12-11T05:21:22;2.30;99.90
2913;DHT22;1466;48.778;9.166;2022-12-11T05:23:47;2.20;99.90
2913;DHT22;1466;48.778;9.166;2022-12-11T05:26:15;2.20;99.90
2913;DHT22;1466;48.778;9.166;2022-12-11T05:28:42;2.10;99.90
2913;DHT22;1466;48.778;9.166;2022-12-11T05:31:12;2.00;99.90
2913;DHT22;1466;48.778;9.166;2022-12-11T05:33:38;1.90;99.90
2913;DHT22;1466;48.778;9.166;2022-12-11T05:36:05;1.90;99.90
2913;DHT22;1466;48.778;9.166;2022-12-11T05:38:31;1.80;99.90
2913;DHT22;1466;48.778;9.166;2022-12-11T05:41:00;1.80;99.90
2913;DHT22;1466;48.778;9.166;2022-12-11T05:43:28;1.80;99.90
2913;DHT22;1466;48.778;9.166;2022-12-11T05:45:54;1.80;99.90
2913;DHT22;1466;48.778;9.166;2022-12-11T05:48:20;1.80;99.90
2913;DHT22;1466;48.778;9.166;2022-12-11T05:50:58;1.80;99.90
2913;DHT22;1466;48.778;9.166;2022-12-11T05:53:24;1.70;99.90
2913;DHT22;1466;48.778;9.166;2022-12-11T05:55:50;1.60;99.90
2913;DHT22;1466;48.778;9.166;2022-12-11T05:58:16;1.60;99.90
2913;DHT22;1466;48.778;9.166;2022-12-11T06:00:41;1.50;99.90
2913;DHT22;1466;48.778;9.166;2022-12-11T06:03:07;1.40;99.90
2913;DHT22;1466;48.778;9.166;2022-12-11T06:05:37;1.40;99.90
2913;DHT22;1466;48.778;9.166;2022-12-11T06:08:03;1.30;99.90
2913;DHT22;1466;48.778;9.166;2022-12-11T06:10:29;1.30;99.90
2913;DHT22;1466;48.778;9.166;2022-12-11T06:12:54;1.30;99.90
2913;DHT22;1466;48.778;9.166;2022-12-11T06:15:20;1.40;99.90
2913;DHT22;1466;48.778;9.166;2022-12-11T06:17:46;1.40;99.90
2913;DHT22;1466;48.778;9.166;2022-12-11T06:20:12;1.40;99.90
2913;DHT22;1466;48.778;9.166;2022-12-11T06:22:37;1.30;99.90
2913;DHT22;1466;48.778;9.166;2022-12-11T06:25:03;1.20;99.90
2913;DHT22;1466;48.778;9.166;2022-12-11T06:27:29;1.20;99.90
2913;DHT22;1466;48.778;9.166;2022-12-11T06:29:55;1.20;99.90
2913;DHT22;1466;48.778;9.166;2022-12-11T06:32:21;1.30;99.90
2913;DHT22;1466;48.778;9.166;2022-12-11T06:34:46;1.40;99.90
2913;DHT22;1466;48.778;9.166;2022-12-11T06:37:12;1.30;99.90
2913;DHT22;1466;48.778;9.166;2022-12-11T06:39:38;1.30;99.90
2913;DHT22;1466;48.778;9.166;2022-12-11T06:42:03;1.20;99.90
2913;DHT22;1466;48.778;9.166;2022-12-11T06:44:29;1.20;99.90
2913;DHT22;1466;48.778;9.166;2022-12-11T06:46:54;1.30;99.90
2913;DHT22;1466;48.778;9.166;2022-12-11T06:49:20;1.40;99.90
2913;DHT22;1466;48.778;9.166;2022-12-11T06:51:46;1.50;99.90
2913;DHT22;1466;48.778;9.166;2022-12-11T06:54:12;1.70;99.90
2913;DHT22;1466;48.778;9.166;2022-12-11T06:56:37;1.70;99.90
2913;DHT22;1466;48.778;9.166;2022-12-11T06:59:03;1.80;99.90
2913;DHT22;1466;48.778;9.166;2022-12-11T07:01:29;1.80;99.90
2913;DHT22;1466;48.778;9.166;2022-12-11T07:03:56;1.70;99.90
2913;DHT22;1466;48.778;9.166;2022-12-11T07:06:23;1.70;99.90
2913;DHT22;1466;48.778;9.166;2022-12-11T07:08:49;1.70;99.90
2913;DHT22;1466;48.778;9.166;2022-12-11T07:11:16;1.70;99.90
2913;DHT22;1466;48.778;9.166;2022-12-11T07:13:42;1.70;99.90
2913;DHT22;1466;48.778;9.166;2022-12-11T07:16:10;1.70;99.90
2913;DHT22;1466;48.778;9.166;2022-12-11T07:18:38;1.70;99.90
2913;DHT22;1466;48.778;9.166;2022-12-11T07:21:05;1.70;99.90
2913;DHT22;1466;48.778;9.166;2022-12-11T07:23:32;1.60;99.90
2913;DHT22;1466;48.778;9.166;2022-12-11T07:25:58;1.70;99.90
2913;DHT22;1466;48.778;9.166;2022-12-11T07:28:23;1.70;99.90
2913;DHT22;1466;48.778;9.166;2022-12-11T07:30:49;1.70;99.90
2913;DHT22;1466;48.778;9.166;2022-12-11T07:33:14;1.60;99.90
2913;DHT22;1466;48.778;9.166;2022-12-11T07:35:40;1.50;99.90
2913;DHT22;1466;48.778;9.166;2022-12-11T07:38:06;1.40;99.90
2913;DHT22;1466;48.778;9.166;2022-12-11T07:40:32;1.60;99.90
2913;DHT22;1466;48.778;9.166;2022-12-11T07:42:58;1.60;99.90
2913;DHT22;1466;48.778;9.166;2022-12-11T07:45:24;1.60;99.90
2913;DHT22;1466;48.778;9.166;2022-12-11T07:47:51;1.60;99.90
2913;DHT22;1466;48.778;9.166;2022-12-11T07:50:17;1.50;99.90
2913;DHT22;1466;48.778;9.166;2022-12-11T07:52:42;1.60;99.90
2913;DHT22;1466;48.778;9.166;2022-12-11T07:55:09;1.60;99.90
2913;DHT22;1466;48.778;9.166;2022-12-11T07:57:35;1.60;99.90
2913;DHT22;1466;48.778;9.166;2022-12-11T08:00:01;1.60;99.90
2913;DHT22;1466;48.778;9.166;2022-12-11T08:02:26;1.70;99.90
2913;DHT22;1466;48.778;9.166;2022-12-11T08:04:52;1.70;99.90
2913;DHT22;1466;48.778;9.166;2022-12-11T08:07:17;1.80;99.90
2913;DHT22;1466;48.778;9.166;2022-12-11T08:09:43;1.90;99.90
2913;DHT22;1466;48.778;9.166;2022-12-11T08:12:08;2.00;99.90
2913;DHT22;1466;48.778;9.166;2022-12-11T08:14:34;2.10;99.90
2913;DHT22;1466;48.778;9.166;2022-12-11T08:17:00;2.30;99.90
2913;DHT22;1466;48.778;9.166;2022-12-11T08:19:26;2.50;99.90
2913;DHT22;1466;48.778;9.166;2022-12-11T08:21:52;2.60;99.90
2913;DHT22;1466;48.778;9.166;2022-12-11T08:24:18;2.60;99.90
2913;DHT22;1466;48.778;9.166;2022-12-11T08:26:45;2.50;99.90
2913;DHT22;1466;48.778;9.166;2022-12-11T08:29:11;2.50;99.90
2913;DHT22;1466;48.778;9.166;2022-12-11T08:31:38;2.50;99.90
2913;DHT22;1466;48.778;9.166;2022-12-11T08:34:04;2.40;99.90
2913;DHT22;1466;48.778;9.166;2022-12-11T08:36:30;2.40;99.90
2913;DHT22;1466;48.778;9.166;2022-12-11T08:38:56;2.40;99.90
2913;DHT22;1466;48.778;9.166;2022-12-11T08:41:24;2.50;99.90
2913;DHT22;1466;48.778;9.166;2022-12-11T08:43:50;2.40;99.90
2913;DHT22;1466;48.778;9.166;2022-12-11T08:46:21;2.30;99.90
2913;DHT22;1466;48.778;9.166;2022-12-11T08:48:48;2.30;99.90
2913;DHT22;1466;48.778;9.166;2022-12-11T08:51:20;2.30;99.90
2913;DHT22;1466;48.778;9.166;2022-12-11T08:53:47;2.30;99.90
2913;DHT22;1466;48.778;9.166;2022-12-11T08:56:15;2.30;99.90
2913;DHT22;1466;48.778;9.166;2022-12-11T08:58:41;2.30;99.90
2913;DHT22;1466;48.778;9.166;2022-12-11T09:01:15;2.30;99.90
2913;DHT22;1466;48.778;9.166;2022-12-11T09:03:42;2.30;99.90
2913;DHT22;1466;48.778;9.166;2022-12-11T09:06:15;2.30;99.90
2913;DHT22;1466;48.778;9.166;2022-12-11T09:08:41;2.30;99.90
2913;DHT22;1466;48.778;9.166;2022-12-11T09:11:09;2.20;99.90
2913;DHT22;1466;48.778;9.166;2022-12-11T09:13:37;2.30;99.90
2913;DHT22;1466;48.778;9.166;2022-12-11T09:16:05;2.30;99.90
2913;DHT22;1466;48.778;9.166;2022-12-11T09:18:30;2.40;99.90
2913;DHT22;1466;48.778;9.166;2022-12-11T09:21:04;2.50;99.90
2913;DHT22;1466;48.778;9.166;2022-12-11T09:23:30;2.60;99.90
2913;DHT22;1466;48.778;9.166;2022-12-11T09:25:56;2.60;99.90
2913;DHT22;1466;48.778;9.166;2022-12-11T09:28:22;2.60;99.90
2913;DHT22;1466;48.778;9.166;2022-12-11T09:30:47;2.60;99.90
2913;DHT22;1466;48.778;9.166;2022-12-11T09:33:13;2.60;99.90
2913;DHT22;1466;48.778;9.166;2022-12-11T09:35:39;2.70;99.90
2913;DHT22;1466;48.778;9.166;2022-12-11T09:38:04;2.80;99.90
2913;DHT22;1466;48.778;9.166;2022-12-11T09:40:31;2.80;99.90
2913;DHT22;1466;48.778;9.166;2022-12-11T09:43:13;2.90;99.90
2913;DHT22;1466;48.778;9.166;2022-12-11T09:45:41;2.90;99.90
2913;DHT22;1466;48.778;9.166;2022-12-11T09:48:08;3.00;99.90
2913;DHT22;1466;48.778;9.166;2022-12-11T09:50:35;3.10;99.90
2913;DHT22;1466;48.778;9.166;2022-12-11T09:53:31;3.10;99.90
2913;DHT22;1466;48.778;9.166;2022-12-11T09:56:20;3.20;99.90
2913;DHT22;1466;48.778;9.166;2022-12-11T10:12:36;3.30;99.60
2913;DHT22;1466;48.778;9.166;2022-12-11T10:17:57;3.20;99.40
2913;DHT22;1466;48.778;9.166;2022-12-11T10:22:53;3.20;99.40
2913;DHT22;1466;48.778;9.166;2022-12-11T10:27:45;3.30;99.30
2913;DHT22;1466;48.778;9.166;2022-12-11T10:35:44;3.40;99.30
2913;DHT22;1466;48.778;9.166;2022-12-11T10:40:47;3.70;99.10
2913;DHT22;1466;48.778;9.166;2022-12-11T10:43:14;3.70;99.00
2913;DHT22;1466;48.778;9.166;2022-12-11T10:45:49;3.70;98.80
2913;DHT22;1466;48.778;9.166;2022-12-11T10:48:15;3.60;98.80
2913;DHT22;1466;48.778;9.166;2022-12-11T10:50:41;3.70;98.90
2913;DHT22;1466;48.778;9.166;2022-12-11T10:53:19;3.60;98.90
2913;DHT22;1466;48.778;9.166;2022-12-11T10:55:47;3.60;99.10
2913;DHT22;1466;48.778;9.166;2022-12-11T10:58:20;3.50;99.00
2913;DHT22;1466;48.778;9.166;2022-12-11T11:00:58;3.50;99.10
2913;DHT22;1466;48.778;9.166;2022-12-11T11:03:26;3.50;99.30
2913;DHT22;1466;48.778;9.166;2022-12-11T11:06:06;3.50;99.40
2913;DHT22;1466;48.778;9.166;2022-12-11T11:08:44;3.40;99.60
2913;DHT22;1466;48.778;9.166;2022-12-11T11:11:32;3.40;99.70
2913;DHT22;1466;48.778;9.166;2022-12-11T11:14:17;3.40;99.90
2913;DHT22;1466;48.778;9.166;2022-12-11T11:16:45;3.40;99.90
2913;DHT22;1466;48.778;9.166;2022-12-11T11:19:25;3.30;99.90
2913;DHT22;1466;48.778;9.166;2022-12-11T11:22:03;3.30;99.90
2913;DHT22;1466;48.778;9.166;2022-12-11T11:24:39;3.40;99.90
2913;DHT22;1466;48.778;9.166;2022-12-11T11:29:46;3.40;99.90
2913;DHT22;1466;48.778;9.166;2022-12-11T11:32:32;3.40;99.90
2913;DHT22;1466;48.778;9.166;2022-12-11T11:35:15;3.50;99.90
2913;DHT22;1466;48.778;9.166;2022-12-11T11:37:45;3.50;99.90
2913;DHT22;1466;48.778;9.166;2022-12-11T11:40:29;3.40;99.90
2913;DHT22;1466;48.778;9.166;2022-12-11T11:43:18;3.20;99.90
2913;DHT22;1466;48.778;9.166;2022-12-11T11:45:55;3.20;99.90
2913;DHT22;1466;48.778;9.166;2022-12-11T11:48:35;3.30;99.90
2913;DHT22;1466;48.778;9.166;2022-12-11T11:51:15;3.30;99.90
2913;DHT22;1466;48.778;9.166;2022-12-11T11:53:45;3.40;99.90
2913;DHT22;1466;48.778;9.166;2022-12-11T11:56:27;3.40;99.90
2913;DHT22;1466;48.778;9.166;2022-12-11T12:01:57;3.50;99.90
2913;DHT22;1466;48.778;9.166;2022-12-11T12:04:24;3.50;99.90
2913;DHT22;1466;48.778;9.166;2022-12-11T12:09:56;3.40;99.90
2913;DHT22;1466;48.778;9.166;2022-12-11T12:15:28;3.40;99.90
2913;DHT22;1466;48.778;9.166;2022-12-11T12:26:07;3.40;99.90
2913;DHT22;1466;48.778;9.166;2022-12-11T12:40:17;3.40;99.90
2913;DHT22;1466;48.778;9.166;2022-12-11T12:45:25;3.40;99.90
2913;DHT22;1466;48.778;9.166;2022-12-11T12:47:52;3.50;99.90
2913;DHT22;1466;48.778;9.166;2022-12-11T12:50:20;3.50;99.90
2913;DHT22;1466;48.778;9.166;2022-12-11T12:52:47;3.50;99.90
2913;DHT22;1466;48.778;9.166;2022-12-11T12:55:26;3.60;99.90
2913;DHT22;1466;48.778;9.166;2022-12-11T12:58:04;3.60;99.90
2913;DHT22;1466;48.778;9.166;2022-12-11T13:03:13;3.40;99.90
2913;DHT22;1466;48.778;9.166;2022-12-11T13:05:42;3.40;99.90
2913;DHT22;1466;48.778;9.166;2022-12-11T13:08:09;3.30;99.90
2913;DHT22;1466;48.778;9.166;2022-12-11T13:10:40;3.20;99.90
2913;DHT22;1466;48.778;9.166;2022-12-11T13:13:38;3.10;99.90
2913;DHT22;1466;48.778;9.166;2022-12-11T13:16:24;3.00;99.90
2913;DHT22;1466;48.778;9.166;2022-12-11T13:18:50;3.00;99.90
2913;DHT22;1466;48.778;9.166;2022-12-11T13:26:37;2.70;99.90
2913;DHT22;1466;48.778;9.166;2022-12-11T13:29:03;2.60;99.90
2913;DHT22;1466;48.778;9.166;2022-12-11T13:31:36;2.60;99.90
2913;DHT22;1466;48.778;9.166;2022-12-11T13:34:16;2.60;99.90
2913;DHT22;1466;48.778;9.166;2022-12-11T13:36:50;2.60;99.90
2913;DHT22;1466;48.778;9.166;2022-12-11T13:39:25;2.60;99.90
2913;DHT22;1466;48.778;9.166;2022-12-11T13:41:55;2.60;99.90
2913;DHT22;1466;48.778;9.166;2022-12-11T13:44:27;2.60;99.90
2913;DHT22;1466;48.778;9.166;2022-12-11T13:46:56;2.70;99.90
2913;DHT22;1466;48.778;9.166;2022-12-11T13:49:25;2.80;99.90
2913;DHT22;1466;48.778;9.166;2022-12-11T13:51:55;2.80;99.90
2913;DHT22;1466;48.778;9.166;2022-12-11T13:54:21;2.80;99.90
2913;DHT22;1466;48.778;9.166;2022-12-11T13:56:59;2.80;99.90
2913;DHT22;1466;48.778;9.166;2022-12-11T13:59:33;2.70;99.90
2913;DHT22;1466;48.778;9.166;2022-12-11T14:02:24;2.60;99.90
2913;DHT22;1466;48.778;9.166;2022-12-11T14:04:50;2.50;99.90
2913;DHT22;1466;48.778;9.166;2022-12-11T14:07:24;2.50;99.90
2913;DHT22;1466;48.778;9.166;2022-12-11T14:09:54;2.50;99.90
2913;DHT22;1466;48.778;9.166;2022-12-11T14:12:23;2.60;99.90
2913;DHT22;1466;48.778;9.166;2022-12-11T14:14:59;2.60;99.90
2913;DHT22;1466;48.778;9.166;2022-12-11T14:17:29;2.40;99.90
2913;DHT22;1466;48.778;9.166;2022-12-11T14:19:58;2.20;99.90
2913;DHT22;1466;48.778;9.166;2022-12-11T14:22:26;2.20;99.90
2913;DHT22;1466;48.778;9.166;2022-12-11T14:24:57;2.20;99.90
2913;DHT22;1466;48.778;9.166;2022-12-11T14:27:25;2.20;99.90
2913;DHT22;1466;48.778;9.166;2022-12-11T14:29:51;2.20;99.90
2913;DHT22;1466;48.778;9.166;2022-12-11T14:32:40;2.20;99.90
2913;DHT22;1466;48.778;9.166;2022-12-11T14:35:29;2.30;99.90
2913;DHT22;1466;48.778;9.166;2022-12-11T14:37:57;2.20;99.90
2913;DHT22;1466;48.778;9.166;2022-12-11T14:40:30;2.20;99.90
2913;DHT22;1466;48.778;9.166;2022-12-11T14:43:01;2.00;99.90
2913;DHT22;1466;48.778;9.166;2022-12-11T14:45:37;2.00;99.90
2913;DHT22;1466;48.778;9.166;2022-12-11T14:48:14;2.10;99.90
2913;DHT22;1466;48.778;9.166;2022-12-11T14:50:47;2.10;99.90
2913;DHT22;1466;48.778;9.166;2022-12-11T14:53:26;1.90;99.90
2913;DHT22;1466;48.778;9.166;2022-12-11T14:55:54;1.90;99.90
2913;DHT22;1466;48.778;9.166;2022-12-11T14:58:24;2.00;99.90
2913;DHT22;1466;48.778;9.166;2022-12-11T15:01:06;2.00;99.90
2913;DHT22;1466;48.778;9.166;2022-12-11T15:03:36;2.00;99.90
2913;DHT22;1466;48.778;9.166;2022-12-11T15:06:23;2.10;99.90
2913;DHT22;1466;48.778;9.166;2022-12-11T15:08:50;2.10;99.90
2913;DHT22;1466;48.778;9.166;2022-12-11T15:11:23;2.10;99.90
2913;DHT22;1466;48.778;9.166;2022-12-11T15:13:59;2.20;99.90
2913;DHT22;1466;48.778;9.166;2022-12-11T15:16:27;2.20;99.90
2913;DHT22;1466;48.778;9.166;2022-12-11T15:18:55;2.30;99.90
2913;DHT22;1466;48.778;9.166;2022-12-11T15:21:33;2.40;99.90
2913;DHT22;1466;48.778;9.166;2022-12-11T15:24:02;2.50;99.90
2913;DHT22;1466;48.778;9.166;2022-12-11T15:26:37;2.60;99.90
2913;DHT22;1466;48.778;9.166;2022-12-11T15:34:51;2.50;99.90
2913;DHT22;1466;48.778;9.166;2022-12-11T15:39:56;2.60;99.90
2913;DHT22;1466;48.778;9.166;2022-12-11T15:42:34;2.60;99.90
2913;DHT22;1466;48.778;9.166;2022-12-11T15:45:00;2.70;99.90
2913;DHT22;1466;48.778;9.166;2022-12-11T15:47:29;2.60;99.90
2913;DHT22;1466;48.778;9.166;2022-12-11T15:49:59;2.60;99.90
2913;DHT22;1466;48.778;9.166;2022-12-11T15:52:25;2.60;99.90
2913;DHT22;1466;48.778;9.166;2022-12-11T15:54:50;2.50;99.90
2913;DHT22;1466;48.778;9.166;2022-12-11T15:57:21;2.60;99.90
2913;DHT22;1466;48.778;9.166;2022-12-11T15:59:50;2.50;99.90
2913;DHT22;1466;48.778;9.166;2022-12-11T16:02:17;2.40;99.90
2913;DHT22;1466;48.778;9.166;2022-12-11T16:04:43;2.50;99.90
2913;DHT22;1466;48.778;9.166;2022-12-11T16:07:17;2.50;99.90
2913;DHT22;1466;48.778;9.166;2022-12-11T16:09:44;2.50;99.90
2913;DHT22;1466;48.778;9.166;2022-12-11T16:12:10;2.60;99.90
2913;DHT22;1466;48.778;9.166;2022-12-11T16:14:35;2.60;99.90
2913;DHT22;1466;48.778;9.166;2022-12-11T16:17:04;2.60;99.90
2913;DHT22;1466;48.778;9.166;2022-12-11T16:19:31;2.60;99.90
2913;DHT22;1466;48.778;9.166;2022-12-11T16:21:56;2.60;99.90
2913;DHT22;1466;48.778;9.166;2022-12-11T16:24:22;2.60;99.90
2913;DHT22;1466;48.778;9.166;2022-12-11T16:26:47;2.60;99.90
2913;DHT22;1466;48.778;9.166;2022-12-11T16:29:13;2.60;99.90
2913;DHT22;1466;48.778;9.166;2022-12-11T16:31:39;2.60;99.90
2913;DHT22;1466;48.778;9.166;2022-12-11T16:34:07;2.60;99.90
2913;DHT22;1466;48.778;9.166;2022-12-11T16:36:33;2.60;99.90
2913;DHT22;1466;48.778;9.166;2022-12-11T16:38:59;2.60;99.90
2913;DHT22;1466;48.778;9.166;2022-12-11T16:41:24;2.60;99.90
2913;DHT22;1466;48.778;9.166;2022-12-11T16:43:50;2.50;99.90
2913;DHT22;1466;48.778;9.166;2022-12-11T16:46:19;2.40;99.90
2913;DHT22;1466;48.778;9.166;2022-12-11T16:48:45;2.30;99.90
2913;DHT22;1466;48.778;9.166;2022-12-11T16:51:10;2.40;99.90
2913;DHT22;1466;48.778;9.166;2022-12-11T16:53:36;2.40;99.90
2913;DHT22;1466;48.778;9.166;2022-12-11T16:56:03;2.40;99.90
2913;DHT22;1466;48.778;9.166;2022-12-11T16:58:29;2.40;99.90
2913;DHT22;1466;48.778;9.166;2022-12-11T17:00:54;2.40;99.90
2913;DHT22;1466;48.778;9.166;2022-12-11T17:03:30;2.40;99.90
2913;DHT22;1466;48.778;9.166;2022-12-11T17:05:56;2.30;99.90
2913;DHT22;1466;48.778;9.166;2022-12-11T17:08:23;2.30;99.90
2913;DHT22;1466;48.778;9.166;2022-12-11T17:10:49;2.30;99.90
2913;DHT22;1466;48.778;9.166;2022-12-11T17:13:15;2.40;99.90
2913;DHT22;1466;48.778;9.166;2022-12-11T17:15:42;2.50;99.90
2913;DHT22;1466;48.778;9.166;2022-12-11T17:18:07;2.40;99.90
2913;DHT22;1466;48.778;9.166;2022-12-11T17:20:33;2.40;99.90
2913;DHT22;1466;48.778;9.166;2022-12-11T17:22:59;2.30;99.90
2913;DHT22;1466;48.778;9.166;2022-12-11T17:25:25;2.40;99.90
2913;DHT22;1466;48.778;9.166;2022-12-11T17:27:51;2.30;99.90
2913;DHT22;1466;48.778;9.166;2022-12-11T17:30:16;2.20;99.90
2913;DHT22;1466;48.778;9.166;2022-12-11T17:32:46;2.10;99.90
2913;DHT22;1466;48.778;9.166;2022-12-11T17:35:11;2.20;99.90
2913;DHT22;1466;48.778;9.166;2022-12-11T17:37:38;2.20;99.90
2913;DHT22;1466;48.778;9.166;2022-12-11T17:40:04;2.30;99.90
2913;DHT22;1466;48.778;9.166;2022-12-11T17:42:30;2.20;99.90
2913;DHT22;1466;48.778;9.166;2022-12-11T17:44:55;2.20;99.90
2913;DHT22;1466;48.778;9.166;2022-12-11T17:47:21;2.10;99.90
2913;DHT22;1466;48.778;9.166;2022-12-11T17:49:46;2.00;99.90
2913;DHT22;1466;48.778;9.166;2022-12-11T17:52:12;2.00;99.90
2913;DHT22;1466;48.778;9.166;2022-12-11T17:54:38;2.00;99.90
2913;DHT22;1466;48.778;9.166;2022-12-11T17:57:04;2.00;99.90
2913;DHT22;1466;48.778;9.166;2022-12-11T17:59:31;2.10;99.90